Disclaimer

Please do not use the information listed here in-flight or in-navigation, as they are not provided to us by the airports but are provided by volunteers, so they might be outdated.

Search


Regions


Airport information page

Radio informations:
MUNCHEN RADAR - 127.95 MHz
MUNCHEN ARR - 120.775 MHz
MUNCHEN INFO - 126.95 MHz

Airport informations:
Latitude: 48° 04' 52.91" N
Longitude: 011° 16' 59.04" E
Elevation: 1947 feet - 593 meters
Operating hours: Remarks
Operating agency: Private
Timezone: UTC+1(+2DT) - Last Sunday in March to last Sunday in October
Fuel: Jet A1, without icing nhibitor.

Runway information:
04/22 - 7500 x 147 feet< - >2286 x 45 meters

Recent METARs:
EDMO 201920Z 04003KT CAVOK M03/M03 Q1007
EDMO 201920Z 04003KT CAVOK M03/M03 Q1007
EDMO 201920Z 04003KT CAVOK M03/M03 Q1007

Airport on the map: